createdAt,value
2022-10-06T00:00:38.585Z,100691.41
2022-10-06T00:03:05.305Z,100689.97
2022-10-06T00:05:32.110Z,100693.78
2022-10-06T00:07:59.902Z,100691.38
2022-10-06T00:10:26.582Z,100695.88
2022-10-06T00:12:53.426Z,100708.50
2022-10-06T00:15:26.184Z,100711.88
2022-10-06T00:17:53.101Z,100717.34
2022-10-06T00:20:20.009Z,100719.44
2022-10-06T00:22:48.611Z,100729.56
2022-10-06T00:25:18.751Z,100730.97
2022-10-06T00:27:47.812Z,100733.22
2022-10-06T00:30:24.535Z,100730.56
2022-10-06T00:33:00.752Z,100727.69
2022-10-06T00:35:33.507Z,100720.41
2022-10-06T00:38:00.978Z,100727.75
2022-10-06T00:40:28.166Z,100718.06
2022-10-06T00:43:02.847Z,100723.47
2022-10-06T00:45:34.524Z,100725.22
2022-10-06T00:48:08.015Z,100736.03
2022-10-06T00:50:35.682Z,100730.28
2022-10-06T00:53:03.006Z,100733.63
2022-10-06T00:55:31.004Z,100743.72
2022-10-06T00:57:59.540Z,100746.38
2022-10-06T01:00:26.692Z,100747.38
2022-10-06T01:03:04.920Z,100742.13
2022-10-06T01:05:35.301Z,100747.31
2022-10-06T01:08:02.121Z,100750.03
2022-10-06T01:10:28.793Z,100755.38
2022-10-06T01:12:57.124Z,100758.16
2022-10-06T01:15:25.388Z,100760.66
2022-10-06T01:17:55.707Z,100748.41
2022-10-06T01:20:23.709Z,100749.13
2022-10-06T01:23:02.337Z,100748.22
2022-10-06T01:25:29.226Z,100758.97
2022-10-06T01:27:57.164Z,100749.97
2022-10-06T01:30:32.738Z,100759.75
2022-10-06T01:32:59.795Z,100754.59
2022-10-06T01:35:27.139Z,100760.19
2022-10-06T01:37:54.957Z,100767.47
2022-10-06T01:40:21.608Z,100759.34
2022-10-06T01:42:48.653Z,100756.69
2022-10-06T01:45:15.706Z,100762.13
2022-10-06T01:47:42.353Z,100764.25
2022-10-06T01:50:10.126Z,100776.00
2022-10-06T01:52:36.823Z,100779.25
2022-10-06T01:55:04.279Z,100768.84
2022-10-06T01:57:31.542Z,100772.75
2022-10-06T01:59:58.342Z,100778.69
2022-10-06T02:02:25.045Z,100786.41
2022-10-06T02:04:52.314Z,100797.53
2022-10-06T02:07:19.486Z,100797.44
2022-10-06T02:09:46.900Z,100796.59
2022-10-06T02:12:14.697Z,100801.78
2022-10-06T02:14:41.975Z,100801.38
2022-10-06T02:17:10.023Z,100806.72
2022-10-06T02:19:36.787Z,100806.16
2022-10-06T02:22:03.761Z,100806.16
2022-10-06T02:24:30.452Z,100808.56
2022-10-06T02:26:57.204Z,100811.94
2022-10-06T02:29:24.186Z,100822.19
2022-10-06T02:31:52.163Z,100817.97
2022-10-06T02:34:18.982Z,100823.84
2022-10-06T02:36:45.644Z,100829.56
2022-10-06T02:39:12.699Z,100829.09
2022-10-06T02:41:40.381Z,100841.31
2022-10-06T02:44:07.134Z,100838.41
2022-10-06T02:46:34.225Z,100839.38
2022-10-06T02:49:01.778Z,100843.16
2022-10-06T02:51:29.789Z,100862.19
2022-10-06T02:53:56.499Z,100857.53
2022-10-06T02:56:24.904Z,100858.00
2022-10-06T02:58:53.261Z,100858.00
2022-10-06T03:01:29.955Z,100863.22
2022-10-06T03:04:06.146Z,100863.94
2022-10-06T03:06:34.113Z,100859.88
2022-10-06T03:09:16.262Z,100861.34
2022-10-06T03:11:43.900Z,100871.03
2022-10-06T03:14:21.843Z,100876.16
2022-10-06T03:16:51.842Z,100888.25
2022-10-06T03:19:23.658Z,100882.34
2022-10-06T03:21:50.520Z,100886.31
2022-10-06T03:24:17.516Z,100890.81
2022-10-06T03:26:48.651Z,100889.81
2022-10-06T03:29:17.156Z,100896.88
2022-10-06T03:31:48.898Z,100894.84
2022-10-06T03:34:15.754Z,100899.91
2022-10-06T03:36:44.433Z,100903.59
2022-10-06T03:39:11.814Z,100908.91
2022-10-06T03:41:39.938Z,100904.88
2022-10-06T03:44:08.619Z,100911.69
2022-10-06T03:46:37.861Z,100909.50
2022-10-06T03:49:07.154Z,100918.88
2022-10-06T03:51:38.861Z,100912.91
2022-10-06T03:54:10.599Z,100924.19
2022-10-06T03:56:40.871Z,100921.16
2022-10-06T03:59:12.182Z,100928.28
2022-10-06T04:01:42.923Z,100934.63
2022-10-06T04:04:12.787Z,100930.84
2022-10-06T04:06:42.856Z,100934.63
2022-10-06T04:09:15.515Z,100935.59
2022-10-06T04:11:43.932Z,100945.94
2022-10-06T04:14:13.762Z,100946.28
2022-10-06T04:16:43.048Z,100950.75
2022-10-06T04:19:12.030Z,100954.97
2022-10-06T04:21:43.981Z,100962.28
2022-10-06T04:24:13.949Z,100979.06
2022-10-06T04:26:46.553Z,100973.91
2022-10-06T04:29:14.033Z,100979.88
2022-10-06T04:31:42.683Z,100983.63
2022-10-06T04:34:16.519Z,100995.78
2022-10-06T04:36:44.694Z,101008.56
2022-10-06T04:39:14.921Z,100992.66
2022-10-06T04:41:47.688Z,101010.97
2022-10-06T04:44:19.252Z,101003.16
2022-10-06T04:46:46.617Z,101003.00
2022-10-06T04:49:19.545Z,101010.38
2022-10-06T04:51:48.854Z,101017.19
2022-10-06T04:54:16.117Z,101009.38
2022-10-06T04:56:44.190Z,101010.69
2022-10-06T04:59:11.116Z,101019.63
2022-10-06T05:01:40.492Z,101028.81
2022-10-06T05:04:10.679Z,101038.72
2022-10-06T05:06:39.804Z,101034.69
2022-10-06T05:09:09.387Z,101038.66
2022-10-06T05:11:38.028Z,101053.34
2022-10-06T05:14:07.845Z,101041.56
2022-10-06T05:16:38.852Z,101039.56
2022-10-06T05:19:08.098Z,101046.63
2022-10-06T05:24:03.917Z,101041.03
2022-10-06T05:26:32.021Z,101048.78
2022-10-06T05:29:00.549Z,101053.16
2022-10-06T05:31:32.901Z,101047.66
2022-10-06T05:34:02.828Z,101061.88
2022-10-06T05:36:31.391Z,101067.09
2022-10-06T05:38:58.580Z,101067.81
2022-10-06T05:41:31.941Z,101078.78
2022-10-06T05:44:01.524Z,101088.19
2022-10-06T05:46:31.052Z,101092.44
2022-10-06T05:49:00.437Z,101086.97
2022-10-06T05:51:32.281Z,101095.84
2022-10-06T05:54:02.193Z,101099.34
2022-10-06T05:56:29.769Z,101100.19
2022-10-06T05:58:58.138Z,101106.44
2022-10-06T06:01:31.575Z,101111.63
2022-10-06T06:04:01.204Z,101112.63
2022-10-06T06:06:30.973Z,101116.03
2022-10-06T06:09:03.384Z,101112.47
2022-10-06T06:11:31.636Z,101119.53
2022-10-06T06:14:00.379Z,101121.38
2022-10-06T06:16:28.718Z,101120.38
2022-10-06T06:18:55.780Z,101120.38
2022-10-06T06:21:22.856Z,101129.25
2022-10-06T06:23:50.087Z,101136.16
2022-10-06T06:26:29.231Z,101149.91
2022-10-06T06:29:02.751Z,101161.94
2022-10-06T06:31:32.346Z,101159.25
2022-10-06T06:34:00.328Z,101172.34
2022-10-06T06:36:35.507Z,101162.50
2022-10-06T06:39:08.676Z,101165.28
2022-10-06T06:41:38.094Z,101183.78
2022-10-06T06:44:13.938Z,101188.97
2022-10-06T06:46:50.619Z,101191.53
2022-10-06T06:49:20.621Z,101193.94
2022-10-06T06:51:53.796Z,101195.50
2022-10-06T06:54:23.061Z,101198.44
2022-10-06T06:56:56.513Z,101200.84
2022-10-06T06:59:23.522Z,101210.44
2022-10-06T07:01:53.178Z,101208.09
2022-10-06T07:04:21.942Z,101209.53
2022-10-06T07:06:58.548Z,101219.72
2022-10-06T07:09:30.488Z,101219.47
2022-10-06T07:12:05.288Z,101228.22
2022-10-06T07:14:32.288Z,101235.25
2022-10-06T07:17:32.366Z,101233.28
2022-10-06T07:20:17.674Z,101230.50
2022-10-06T07:23:03.019Z,101248.22
2022-10-06T07:25:29.862Z,101251.91
2022-10-06T07:28:02.483Z,101256.00
2022-10-06T07:30:40.677Z,101261.22
2022-10-06T07:33:14.590Z,101261.94
2022-10-06T07:35:42.358Z,101265.19
2022-10-06T07:38:10.292Z,101274.66
2022-10-06T07:40:46.172Z,101275.38
2022-10-06T07:43:22.974Z,101271.72
2022-10-06T07:45:51.203Z,101274.25
2022-10-06T07:48:25.704Z,101270.75
2022-10-06T07:50:58.579Z,101280.34
2022-10-06T07:53:29.874Z,101275.50
2022-10-06T07:56:05.362Z,101284.38
2022-10-06T07:58:37.299Z,101284.38
2022-10-06T08:01:06.606Z,101287.63
2022-10-06T08:03:33.530Z,101290.91
2022-10-06T08:06:01.772Z,101285.41
2022-10-06T08:08:32.986Z,101287.13
2022-10-06T08:11:01.537Z,101292.94
2022-10-06T08:13:28.674Z,101300.13
2022-10-06T08:15:56.489Z,101297.03
2022-10-06T08:18:45.406Z,101297.91
2022-10-06T08:21:17.397Z,101297.19
2022-10-06T08:23:45.571Z,101294.81
2022-10-06T08:26:13.926Z,101291.91
2022-10-06T08:28:44.583Z,101305.13
2022-10-06T08:31:12.342Z,101288.78
2022-10-06T08:33:39.962Z,101299.38
2022-10-06T08:36:14.685Z,101304.34
2022-10-06T08:38:41.520Z,101299.44
2022-10-06T08:41:22.021Z,101307.03
2022-10-06T08:44:02.591Z,101313.94
2022-10-06T08:46:37.275Z,101306.09
2022-10-06T08:49:05.650Z,101307.28
2022-10-06T08:52:04.953Z,101313.56
2022-10-06T08:54:49.901Z,101311.81
2022-10-06T08:57:24.768Z,101316.31
2022-10-06T08:59:53.432Z,101323.25
2022-10-06T09:02:28.041Z,101327.03
2022-10-06T09:04:57.973Z,101316.63
2022-10-06T09:07:48.383Z,101317.16
2022-10-06T09:10:21.190Z,101313.44
2022-10-06T09:13:08.831Z,101329.72
2022-10-06T09:15:50.841Z,101345.81
2022-10-06T09:18:22.109Z,101341.00
2022-10-06T09:21:01.462Z,101345.78
2022-10-06T09:23:49.959Z,101347.81
2022-10-06T09:26:24.491Z,101350.72
2022-10-06T09:28:51.959Z,101352.72
2022-10-06T09:31:27.469Z,101341.91
2022-10-06T09:33:59.278Z,101344.47
2022-10-06T09:36:26.223Z,101350.72
2022-10-06T09:38:55.128Z,101348.59
2022-10-06T09:41:40.911Z,101352.06
2022-10-06T09:44:21.549Z,101356.53
2022-10-06T09:46:48.293Z,101363.59
2022-10-06T09:49:25.943Z,101356.28
2022-10-06T09:52:13.448Z,101356.97
2022-10-06T09:54:43.125Z,101354.75
2022-10-06T09:57:15.028Z,101359.00
2022-10-06T09:59:46.268Z,101362.84
2022-10-06T10:02:29.197Z,101350.84
2022-10-06T10:04:57.092Z,101360.47
2022-10-06T10:07:26.054Z,101361.03
2022-10-06T10:09:54.442Z,101353.84
2022-10-06T10:12:25.290Z,101357.25
2022-10-06T10:14:52.865Z,101357.56
2022-10-06T10:17:32.341Z,101358.53
2022-10-06T10:20:00.887Z,101357.00
2022-10-06T10:22:40.166Z,101347.41
2022-10-06T10:25:20.141Z,101360.53
2022-10-06T10:27:54.600Z,101359.13
2022-10-06T10:30:21.538Z,101359.19
2022-10-06T10:32:51.205Z,101353.38
2022-10-06T10:35:23.333Z,101358.22
2022-10-06T10:37:52.006Z,101362.28
2022-10-06T10:40:37.268Z,101361.88
2022-10-06T10:43:19.556Z,101362.03
2022-10-06T10:45:50.367Z,101367.22
2022-10-06T10:48:22.853Z,101370.78
2022-10-06T10:51:07.667Z,101370.50
2022-10-06T10:53:43.279Z,101367.81
2022-10-06T10:56:12.185Z,101360.63
2022-10-06T10:58:40.586Z,101361.16
2022-10-06T11:01:19.445Z,101363.59
2022-10-06T11:03:56.435Z,101358.94
2022-10-06T11:06:46.643Z,101352.56
2022-10-06T11:09:23.217Z,101349.50
2022-10-06T11:11:58.962Z,101352.19
2022-10-06T11:14:35.782Z,101344.00
2022-10-06T11:17:28.445Z,101356.28
2022-10-06T11:20:08.621Z,101349.66
2022-10-06T11:22:38.114Z,101340.53
2022-10-06T11:25:20.958Z,101341.25
2022-10-06T11:27:50.675Z,101348.84
2022-10-06T11:30:19.604Z,101350.28
2022-10-06T11:33:11.661Z,101341.94
2022-10-06T11:35:41.127Z,101345.91
2022-10-06T11:38:15.746Z,101352.66
2022-10-06T11:41:09.738Z,101346.19
2022-10-06T11:44:03.520Z,101346.19
2022-10-06T11:46:35.769Z,101340.53
2022-10-06T11:49:33.466Z,101340.13
2022-10-06T11:52:08.191Z,101345.19
2022-10-06T11:55:09.071Z,101340.13
2022-10-06T11:58:12.689Z,101331.63
2022-10-06T12:00:50.453Z,101326.25
2022-10-06T12:03:29.491Z,101322.88
2022-10-06T12:05:57.073Z,101324.59
2022-10-06T12:08:38.216Z,101323.16
2022-10-06T12:11:40.474Z,101327.53
2022-10-06T12:17:14.062Z,101324.44
2022-10-06T12:19:56.219Z,101322.03
2022-10-06T12:22:31.184Z,101321.03
2022-10-06T12:25:05.213Z,101324.13
2022-10-06T12:27:38.031Z,101323.72
2022-10-06T12:30:24.308Z,101318.94
2022-10-06T12:32:54.903Z,101324.13
2022-10-06T12:35:28.417Z,101311.28
2022-10-06T12:37:58.186Z,101314.66
2022-10-06T12:40:44.082Z,101305.50
2022-10-06T12:43:20.317Z,101309.03
2022-10-06T12:45:47.617Z,101311.53
2022-10-06T12:48:24.621Z,101306.47
2022-10-06T12:50:59.328Z,101307.72
2022-10-06T12:53:33.921Z,101300.50
2022-10-06T12:56:03.762Z,101300.09
2022-10-06T12:58:33.288Z,101299.94
2022-10-06T13:01:01.571Z,101304.06
2022-10-06T13:03:28.982Z,101302.50
2022-10-06T13:06:03.806Z,101303.59
2022-10-06T13:08:32.619Z,101305.88
2022-10-06T13:11:21.672Z,101306.75
2022-10-06T13:13:53.041Z,101296.69
2022-10-06T13:16:22.302Z,101303.06
2022-10-06T13:18:49.541Z,101299.66
2022-10-06T13:21:16.523Z,101301.66
2022-10-06T13:23:45.667Z,101304.31
2022-10-06T13:26:23.908Z,101303.38
2022-10-06T13:28:52.458Z,101304.50
2022-10-06T13:31:28.116Z,101297.88
2022-10-06T13:34:11.461Z,101292.94
2022-10-06T13:36:39.744Z,101298.53
2022-10-06T13:39:15.193Z,101289.09
2022-10-06T13:41:44.007Z,101295.03
2022-10-06T13:44:22.505Z,101293.22
2022-10-06T13:46:52.157Z,101288.69
2022-10-06T13:49:45.537Z,101297.28
2022-10-06T13:52:19.422Z,101297.75
2022-10-06T13:54:50.880Z,101290.78
2022-10-06T13:57:40.574Z,101296.63
2022-10-06T14:00:16.314Z,101301.28
2022-10-06T14:02:44.988Z,101289.66
2022-10-06T14:05:26.791Z,101298.28
2022-10-06T14:08:01.677Z,101286.00
2022-10-06T14:10:39.898Z,101289.69
2022-10-06T14:13:10.009Z,101288.41
2022-10-06T14:15:53.065Z,101294.34
2022-10-06T14:18:19.910Z,101288.84
2022-10-06T14:20:48.590Z,101285.59
2022-10-06T14:23:44.185Z,101287.31
2022-10-06T14:26:13.240Z,101293.09
2022-10-06T14:28:45.900Z,101284.88
2022-10-06T14:31:14.619Z,101283.91
2022-10-06T14:33:41.839Z,101286.44
2022-10-06T14:36:16.119Z,101281.66
2022-10-06T14:38:42.972Z,101282.63
2022-10-06T14:41:09.681Z,101281.22
2022-10-06T14:43:36.335Z,101285.03
2022-10-06T14:46:06.223Z,101280.94
2022-10-06T14:48:33.113Z,101275.72
2022-10-06T14:51:03.118Z,101269.78
2022-10-06T14:53:30.583Z,101269.78
2022-10-06T14:56:02.457Z,101264.69
2022-10-06T14:58:29.207Z,101270.63
2022-10-06T15:00:55.841Z,101269.06
2022-10-06T15:03:22.665Z,101275.31
2022-10-06T15:06:07.957Z,101268.81
2022-10-06T15:08:34.612Z,101264.41
2022-10-06T15:11:01.238Z,101266.13
2022-10-06T15:13:27.980Z,101260.34
2022-10-06T15:15:58.740Z,101266.97
2022-10-06T15:18:26.061Z,101264.28
2022-10-06T15:20:52.826Z,101263.53
2022-10-06T15:23:19.530Z,101261.00
2022-10-06T15:26:11.339Z,101263.53
2022-10-06T15:28:56.538Z,101254.34
2022-10-06T15:31:24.263Z,101259.28
2022-10-06T15:33:55.006Z,101258.59
2022-10-06T15:36:24.130Z,101259.44
2022-10-06T15:38:51.972Z,101255.75
2022-10-06T15:41:19.276Z,101252.97
2022-10-06T15:43:55.137Z,101248.72
2022-10-06T15:46:21.869Z,101250.81
2022-10-06T15:48:48.643Z,101246.31
2022-10-06T15:51:15.431Z,101254.06
2022-10-06T15:53:44.098Z,101254.34
2022-10-06T15:56:11.223Z,101251.94
2022-10-06T15:58:39.546Z,101250.25
2022-10-06T16:01:10.432Z,101252.38
2022-10-06T16:03:41.350Z,101252.38
2022-10-06T16:06:08.662Z,101244.31
2022-10-06T16:08:35.929Z,101252.06
2022-10-06T16:11:03.051Z,101250.50
2022-10-06T16:13:29.859Z,101252.03
2022-10-06T16:15:57.412Z,101259.69
2022-10-06T16:18:24.586Z,101248.41
2022-10-06T16:20:55.007Z,101247.97
2022-10-06T16:23:22.108Z,101258.09
2022-10-06T16:25:49.494Z,101254.84
2022-10-06T16:28:16.240Z,101261.63
2022-10-06T16:30:43.033Z,101265.81
2022-10-06T16:33:09.841Z,101258.19
2022-10-06T16:35:36.602Z,101257.63
2022-10-06T16:38:03.329Z,101267.72
2022-10-06T16:40:29.998Z,101262.38
2022-10-06T16:42:56.700Z,101267.28
2022-10-06T16:45:23.333Z,101269.41
2022-10-06T16:47:50.025Z,101264.31
2022-10-06T16:50:16.703Z,101271.28
2022-10-06T16:52:43.442Z,101275.91
2022-10-06T16:55:10.222Z,101272.50
2022-10-06T16:57:36.905Z,101270.50
2022-10-06T17:00:05.791Z,101279.66
2022-10-06T17:02:33.910Z,101275.69
2022-10-06T17:05:00.710Z,101281.63
2022-10-06T17:07:27.498Z,101281.69
2022-10-06T17:10:18.599Z,101283.06
2022-10-06T17:12:41.325Z,101283.72
2022-10-06T17:15:08.582Z,101278.75
2022-10-06T17:17:35.301Z,101285.09
2022-10-06T17:20:02.205Z,101276.94
2022-10-06T17:22:29.086Z,101285.84
2022-10-06T17:24:56.036Z,101292.41
2022-10-06T17:27:23.854Z,101291.13
2022-10-06T17:29:50.910Z,101287.81
2022-10-06T17:32:18.004Z,101295.53
2022-10-06T17:34:45.631Z,101306.97
2022-10-06T17:37:12.862Z,101307.63
2022-10-06T17:39:41.562Z,101299.81
2022-10-06T17:42:13.703Z,101302.44
2022-10-06T17:44:40.393Z,101298.03
2022-10-06T17:47:12.238Z,101301.56
2022-10-06T17:49:40.054Z,101303.50
2022-10-06T17:52:06.848Z,101305.13
2022-10-06T17:54:34.425Z,101303.03
2022-10-06T17:57:01.131Z,101294.44
2022-10-06T17:59:30.443Z,101299.91
2022-10-06T18:01:59.862Z,101304.66
2022-10-06T18:04:27.121Z,101304.56
2022-10-06T18:06:54.291Z,101305.41
2022-10-06T18:09:21.835Z,101298.78
2022-10-06T18:11:54.527Z,101305.13
2022-10-06T18:14:23.375Z,101307.44
2022-10-06T18:16:55.832Z,101307.84
2022-10-06T18:19:25.958Z,101301.47
2022-10-06T18:21:54.523Z,101299.50
2022-10-06T18:24:23.667Z,101305.78
2022-10-06T18:26:52.281Z,101309.19
2022-10-06T18:29:21.960Z,101311.88
2022-10-06T18:31:50.596Z,101302.63
2022-10-06T18:36:10.547Z,101303.25
2022-10-06T18:37:04.688Z,101308.34
2022-10-06T18:39:32.042Z,101302.75
2022-10-06T18:42:03.611Z,101307.97
2022-10-06T18:44:49.137Z,101309.44
2022-10-06T18:47:34.403Z,101308.81
2022-10-06T18:50:01.247Z,101305.09
2022-10-06T18:52:28.031Z,101311.53
2022-10-06T18:54:54.702Z,101309.84
2022-10-06T18:57:26.518Z,101305.81
2022-10-06T18:59:54.392Z,101299.78
2022-10-06T19:02:21.308Z,101300.47
2022-10-06T19:04:48.468Z,101303.03
2022-10-06T19:07:15.317Z,101301.22
2022-10-06T19:09:46.455Z,101308.00
2022-10-06T19:12:14.366Z,101307.16
2022-10-06T19:14:47.454Z,101318.09
2022-10-06T19:17:15.147Z,101305.09
2022-10-06T19:19:44.389Z,101307.78
2022-10-06T19:22:13.939Z,101307.56
2022-10-06T19:24:43.155Z,101313.34
2022-10-06T19:27:12.255Z,101304.41
2022-10-06T19:29:45.984Z,101310.69
2022-10-06T19:32:18.412Z,101313.97
2022-10-06T19:34:45.478Z,101312.78
2022-10-06T19:37:12.217Z,101317.25
2022-10-06T19:39:42.755Z,101315.31
2022-10-06T19:42:29.890Z,101316.66
2022-10-06T19:44:56.622Z,101307.41
2022-10-06T19:47:23.545Z,101316.91
2022-10-06T19:49:50.500Z,101315.69
2022-10-06T19:52:17.226Z,101317.22
2022-10-06T19:54:44.067Z,101324.53
2022-10-06T19:57:11.521Z,101329.38
2022-10-06T19:59:38.300Z,101324.75
2022-10-06T20:02:07.615Z,101335.44
2022-10-06T20:04:34.697Z,101324.91
2022-10-06T20:07:01.706Z,101330.69
2022-10-06T20:09:31.709Z,101334.09
2022-10-06T20:11:59.143Z,101336.75
2022-10-06T20:14:26.772Z,101335.69
2022-10-06T20:16:55.284Z,101331.53
2022-10-06T20:19:23.445Z,101337.72
2022-10-06T20:21:50.444Z,101337.09
2022-10-06T20:24:25.624Z,101342.19
2022-10-06T20:26:53.461Z,101331.28
2022-10-06T20:29:23.607Z,101334.34
2022-10-06T20:31:56.188Z,101334.19
2022-10-06T20:34:25.558Z,101337.19
2022-10-06T20:36:55.931Z,101329.78
2022-10-06T20:39:42.190Z,101333.69
2022-10-06T20:42:14.711Z,101332.84
2022-10-06T20:44:43.250Z,101328.19
2022-10-06T20:47:11.870Z,101316.34
2022-10-06T20:49:38.907Z,101318.66
2022-10-06T20:52:06.293Z,101329.78
2022-10-06T20:54:35.893Z,101324.09
2022-10-06T20:57:04.909Z,101319.84
2022-10-06T20:59:32.310Z,101322.16
2022-10-06T21:02:00.243Z,101316.16
2022-10-06T21:04:30.090Z,101305.47
2022-10-06T21:06:57.368Z,101309.63
2022-10-06T21:09:24.553Z,101310.31
2022-10-06T21:11:51.750Z,101300.50
2022-10-06T21:14:18.487Z,101295.91
2022-10-06T21:16:46.838Z,101300.53
2022-10-06T21:19:15.489Z,101299.09
2022-10-06T21:21:44.524Z,101302.09
2022-10-06T21:24:11.361Z,101300.88
2022-10-06T21:26:38.792Z,101303.75
2022-10-06T21:29:05.861Z,101293.78
2022-10-06T21:31:33.486Z,101296.00
2022-10-06T21:34:01.480Z,101293.56
2022-10-06T21:36:31.774Z,101285.06
2022-10-06T21:38:59.962Z,101290.97
2022-10-06T21:41:29.735Z,101297.47
2022-10-06T21:44:00.797Z,101297.38
2022-10-06T21:46:35.940Z,101299.63
2022-10-06T21:49:05.021Z,101307.41
2022-10-06T21:51:31.948Z,101298.94
2022-10-06T21:53:59.692Z,101310.78
2022-10-06T21:56:27.684Z,101306.44
2022-10-06T21:58:55.876Z,101311.59
2022-10-06T22:01:31.042Z,101308.41
2022-10-06T22:04:00.044Z,101310.50
2022-10-06T22:06:28.135Z,101301.91
2022-10-06T22:08:55.802Z,101297.50
2022-10-06T22:11:27.769Z,101298.81
2022-10-06T22:13:59.552Z,101291.69
2022-10-06T22:16:28.584Z,101304.63
2022-10-06T22:18:55.660Z,101290.22
2022-10-06T22:21:27.930Z,101287.88
2022-10-06T22:24:03.363Z,101294.03
2022-10-06T22:26:31.536Z,101288.91
2022-10-06T22:28:58.992Z,101293.31
2022-10-06T22:31:27.295Z,101289.00
2022-10-06T22:33:58.517Z,101286.91
2022-10-06T22:36:26.563Z,101275.97
2022-10-06T22:38:53.605Z,101277.97
2022-10-06T22:41:20.958Z,101277.31
2022-10-06T22:43:47.836Z,101273.75
2022-10-06T22:46:14.700Z,101269.69
2022-10-06T22:48:41.804Z,101269.56
2022-10-06T22:51:08.722Z,101265.59
2022-10-06T22:53:35.691Z,101252.75
2022-10-06T22:56:03.889Z,101259.84
2022-10-06T22:58:30.801Z,101258.69
2022-10-06T23:00:57.583Z,101252.75
2022-10-06T23:03:24.725Z,101248.75
2022-10-06T23:05:59.623Z,101245.72
2022-10-06T23:08:30.168Z,101236.53
2022-10-06T23:11:15.868Z,101232.03
2022-10-06T23:13:43.490Z,101228.44
2022-10-06T23:16:13.125Z,101226.44
2022-10-06T23:18:40.922Z,101223.22
2022-10-06T23:21:10.606Z,101227.69
2022-10-06T23:23:37.708Z,101218.22
2022-10-06T23:26:12.104Z,101215.09
2022-10-06T23:28:39.228Z,101217.94
2022-10-06T23:31:07.580Z,101212.94
2022-10-06T23:33:34.421Z,101222.50
2022-10-06T23:36:09.389Z,101215.31
2022-10-06T23:38:37.141Z,101211.03
2022-10-06T23:41:04.813Z,101207.22
2022-10-06T23:43:31.581Z,101208.47
2022-10-06T23:45:58.600Z,101208.34
2022-10-06T23:48:25.308Z,101203.13
2022-10-06T23:51:02.589Z,101203.81
2022-10-06T23:53:30.189Z,101202.28
2022-10-06T23:55:57.399Z,101195.88
2022-10-06T23:58:24.537Z,101196.97
